Time;durP1;ratioP1;P1;durP2;ratioP2;P2;SDS_P1;SDS_P2;PMS_P1;PMS_P2;Temp;Humidity;BMP_temperature;BMP_pressure;BME280_temperature;BME280_humidity;BME280_pressure;Samples;Min_cycle;Max_cycle;Signal;HPM_P1;HPM_P2
2022/05/08 00:02:24;;;;;;;3.17;2.03;;;24.00;47.00;;;;;;4986341;28;20206;-43
2022/05/08 00:04:51;;;;;;;3.15;2.22;;;24.00;47.00;;;;;;4986735;28;20026;-43
2022/05/08 00:07:20;;;;;;;3.42;2.42;;;24.00;47.10;;;;;;4986202;28;20088;-43
2022/05/08 00:09:47;;;;;;;3.15;2.28;;;24.00;47.10;;;;;;4984951;28;20636;-44
2022/05/08 00:12:14;;;;;;;3.60;2.35;;;24.00;47.00;;;;;;4985989;28;20520;-43
2022/05/08 00:14:41;;;;;;;3.55;2.50;;;24.00;47.00;;;;;;4985402;28;20573;-43
2022/05/08 00:17:07;;;;;;;3.40;2.42;;;24.00;47.00;;;;;;4985844;28;20426;-43
2022/05/08 00:19:33;;;;;;;3.63;2.40;;;24.00;47.00;;;;;;4986075;28;20033;-43
2022/05/08 00:21:59;;;;;;;3.50;2.28;;;24.00;47.00;;;;;;4985643;28;20023;-43
2022/05/08 00:24:25;;;;;;;3.45;2.42;;;24.00;47.00;;;;;;4985546;28;20062;-43
2022/05/08 00:26:51;;;;;;;3.20;2.30;;;24.00;47.00;;;;;;4985410;28;20030;-44
2022/05/08 00:29:16;;;;;;;4.00;2.70;;;24.00;47.00;;;;;;4985581;28;20576;-44
2022/05/08 00:31:43;;;;;;;3.58;2.42;;;24.00;46.90;;;;;;4985713;28;20502;-43
2022/05/08 00:34:09;;;;;;;3.63;2.55;;;24.00;47.00;;;;;;4985396;28;20026;-43
2022/05/08 00:36:35;;;;;;;3.75;2.50;;;24.00;47.00;;;;;;4984270;28;20029;-43
2022/05/08 00:39:01;;;;;;;3.92;2.40;;;24.00;47.00;;;;;;4985596;28;20029;-43
2022/05/08 00:41:26;;;;;;;3.92;2.72;;;23.90;46.90;;;;;;4984956;28;20125;-43
2022/05/08 00:43:52;;;;;;;3.70;2.60;;;24.00;46.90;;;;;;4985246;28;20482;-43
2022/05/08 00:46:18;;;;;;;3.67;2.38;;;24.00;46.90;;;;;;4985659;28;20045;-44
2022/05/08 00:48:44;;;;;;;3.90;2.58;;;24.00;46.80;;;;;;4986005;28;20077;-43
2022/05/08 00:51:12;;;;;;;4.18;2.80;;;23.90;46.80;;;;;;4986068;28;20065;-43
2022/05/08 00:53:49;;;;;;;3.40;2.22;;;24.00;46.90;;;;;;4985383;28;20030;-43
2022/05/08 00:56:16;;;;;;;3.70;2.25;;;23.90;46.80;;;;;;4985587;28;20498;-44
2022/05/08 00:58:43;;;;;;;3.38;2.38;;;23.90;46.80;;;;;;4985663;28;20031;-44
2022/05/08 01:01:10;;;;;;;3.55;2.60;;;24.00;46.70;;;;;;4985600;28;20463;-43
2022/05/08 01:03:37;;;;;;;4.90;2.88;;;23.90;46.80;;;;;;4985561;28;20663;-43
2022/05/08 01:06:05;;;;;;;3.15;2.10;;;23.90;46.80;;;;;;4985116;28;20232;-43
2022/05/08 01:08:33;;;;;;;3.45;2.42;;;23.90;46.70;;;;;;4985371;28;20585;-43
2022/05/08 01:11:02;;;;;;;3.67;2.58;;;23.90;46.80;;;;;;4985061;28;20406;-43
2022/05/08 01:13:27;;;;;;;3.78;2.78;;;23.90;46.80;;;;;;4985103;28;20564;-44
2022/05/08 01:15:55;;;;;;;3.35;2.38;;;23.90;46.80;;;;;;4984723;28;20080;-43
2022/05/08 01:18:21;;;;;;;3.97;2.78;;;23.90;46.80;;;;;;4984275;28;20098;-43
2022/05/08 01:20:47;;;;;;;3.90;2.50;;;23.90;46.80;;;;;;4985069;28;20102;-44
2022/05/08 01:23:21;;;;;;;3.50;2.40;;;23.90;46.80;;;;;;4985123;28;20019;-43
2022/05/08 01:25:52;;;;;;;3.50;2.53;;;23.90;46.80;;;;;;4984542;28;20647;-44
2022/05/08 01:28:19;;;;;;;3.38;2.50;;;23.90;46.90;;;;;;4983925;28;20022;-43
2022/05/08 01:30:48;;;;;;;4.43;2.35;;;23.90;46.80;;;;;;4983213;28;20029;-43
2022/05/08 01:33:15;;;;;;;3.80;2.58;;;23.90;46.70;;;;;;4984721;28;20539;-43
2022/05/08 01:35:42;;;;;;;3.72;2.25;;;23.90;46.70;;;;;;4984986;28;20258;-44
2022/05/08 01:38:09;;;;;;;3.60;2.60;;;23.90;46.70;;;;;;4983352;28;20030;-43
2022/05/08 01:40:35;;;;;;;4.28;2.60;;;23.90;46.80;;;;;;4984551;28;20045;-43
2022/05/08 01:43:01;;;;;;;3.70;2.50;;;23.90;46.80;;;;;;4984298;28;20045;-43
2022/05/08 01:45:27;;;;;;;3.35;2.20;;;23.90;46.80;;;;;;4983040;28;20098;-43
2022/05/08 01:50:37;;;;;;;4.03;2.70;;;23.90;46.70;;;;;;4984746;28;20038;-43
2022/05/08 01:53:03;;;;;;;3.20;2.50;;;23.90;46.70;;;;;;4984769;28;20113;-43
2022/05/08 01:55:30;;;;;;;3.78;2.50;;;23.90;46.70;;;;;;4984641;28;20069;-44
2022/05/08 01:57:56;;;;;;;3.42;2.53;;;23.90;46.70;;;;;;4984685;28;20030;-43
2022/05/08 02:00:23;;;;;;;3.45;2.58;;;23.90;46.70;;;;;;4983114;28;20045;-43
2022/05/08 02:02:49;;;;;;;4.88;3.00;;;23.90;46.60;;;;;;4984299;28;20056;-43
2022/05/08 02:05:16;;;;;;;3.72;2.40;;;23.90;46.70;;;;;;4984238;28;20497;-43
2022/05/08 02:07:46;;;;;;;3.47;2.55;;;23.90;46.80;;;;;;4984860;28;20030;-43
2022/05/08 02:10:14;;;;;;;3.53;2.55;;;23.80;46.70;;;;;;4984604;28;20679;-43
2022/05/08 02:12:41;;;;;;;3.55;2.42;;;23.80;46.60;;;;;;4982554;28;20037;-43
2022/05/08 02:15:08;;;;;;;3.70;2.63;;;23.90;46.70;;;;;;4984249;28;20521;-43
2022/05/08 02:17:35;;;;;;;3.40;2.33;;;23.80;46.60;;;;;;4984914;28;20033;-43
2022/05/08 02:20:02;;;;;;;3.72;2.45;;;23.90;46.70;;;;;;4984158;28;20037;-43
2022/05/08 02:22:27;;;;;;;4.47;3.10;;;23.90;46.60;;;;;;4982931;28;20464;-44
2022/05/08 02:24:53;;;;;;;3.53;2.47;;;23.80;46.60;;;;;;4984096;28;20093;-44
2022/05/08 02:27:20;;;;;;;3.40;2.45;;;23.80;46.60;;;;;;4982070;28;20137;-43
2022/05/08 02:29:49;;;;;;;4.00;2.60;;;23.80;46.60;;;;;;4984261;28;20025;-44
2022/05/08 02:32:15;;;;;;;4.15;2.83;;;23.80;46.60;;;;;;4984270;28;20048;-43
2022/05/08 02:34:41;;;;;;;4.03;2.72;;;23.80;46.50;;;;;;4982885;28;20023;-43
2022/05/08 02:37:07;;;;;;;4.25;2.92;;;23.80;46.50;;;;;;4984187;28;20054;-43
2022/05/08 02:39:33;;;;;;;3.42;2.60;;;23.80;46.50;;;;;;4986501;28;20196;-44
2022/05/08 02:41:58;;;;;;;3.72;2.67;;;23.80;46.50;;;;;;4986996;28;20088;-43
2022/05/08 02:44:24;;;;;;;3.55;2.40;;;23.80;46.60;;;;;;4987932;28;20044;-43
2022/05/08 02:46:50;;;;;;;3.67;2.65;;;23.80;46.60;;;;;;4988283;28;20109;-43
2022/05/08 02:49:16;;;;;;;3.33;2.40;;;23.80;46.50;;;;;;4987869;28;20030;-43
2022/05/08 02:51:42;;;;;;;3.85;2.63;;;23.80;46.50;;;;;;4986366;28;20026;-43
2022/05/08 02:54:08;;;;;;;3.70;2.70;;;23.80;46.60;;;;;;4987931;28;20034;-43
2022/05/08 02:59:38;;;;;;;4.07;2.65;;;23.80;46.60;;;;;;4927206;29;20023;-43
2022/05/08 03:02:04;;;;;;;4.32;2.97;;;23.80;46.50;;;;;;4926741;29;20016;-43
2022/05/08 03:04:30;;;;;;;3.50;2.58;;;23.80;46.60;;;;;;4954911;28;20034;-43
2022/05/08 03:06:56;;;;;;;4.10;2.70;;;23.80;46.60;;;;;;4987844;28;20034;-43
2022/05/08 03:09:21;;;;;;;4.22;2.70;;;23.80;46.50;;;;;;4987418;28;20386;-43
2022/05/08 03:11:47;;;;;;;3.75;2.72;;;23.80;46.50;;;;;;4986847;28;20188;-43
2022/05/08 03:14:13;;;;;;;3.72;2.70;;;23.80;46.60;;;;;;4986717;28;20277;-43
2022/05/08 03:16:39;;;;;;;3.70;2.60;;;23.80;46.60;;;;;;4987413;28;20101;-43
2022/05/08 03:19:04;;;;;;;3.55;2.60;;;23.80;46.60;;;;;;4987240;28;20565;-43
2022/05/08 03:21:30;;;;;;;3.38;2.45;;;23.80;46.60;;;;;;4987292;28;20026;-43
2022/05/08 03:23:56;;;;;;;4.00;2.80;;;23.80;46.50;;;;;;4986889;28;20025;-43
2022/05/08 03:26:22;;;;;;;3.70;2.90;;;23.70;46.50;;;;;;4985826;28;20034;-43
2022/05/08 03:28:48;;;;;;;3.78;2.67;;;23.70;46.50;;;;;;4986814;28;20430;-43
2022/05/08 03:31:14;;;;;;;4.00;2.75;;;23.70;46.50;;;;;;4986849;28;20037;-43
2022/05/08 03:33:40;;;;;;;3.45;2.55;;;23.70;46.50;;;;;;4987212;28;20026;-43
2022/05/08 03:36:07;;;;;;;3.78;2.85;;;23.70;46.50;;;;;;4986803;28;20386;-43
2022/05/08 03:38:35;;;;;;;3.83;2.65;;;23.70;46.50;;;;;;4985622;28;20015;-43
2022/05/08 03:41:02;;;;;;;3.72;2.80;;;23.70;46.60;;;;;;4986868;28;20072;-43
2022/05/08 03:43:28;;;;;;;3.88;2.85;;;23.70;46.50;;;;;;4987039;28;20038;-43
2022/05/08 03:45:53;;;;;;;3.92;2.78;;;23.80;46.60;;;;;;4987205;28;20034;-43
2022/05/08 03:48:20;;;;;;;3.22;2.33;;;23.70;46.60;;;;;;4986999;28;20057;-43
2022/05/08 03:50:46;;;;;;;3.38;2.50;;;23.70;46.60;;;;;;4985217;28;20057;-44
2022/05/08 03:53:12;;;;;;;4.57;2.83;;;23.70;46.50;;;;;;4986762;28;20053;-43
2022/05/08 03:55:38;;;;;;;3.63;2.70;;;23.70;46.50;;;;;;4986924;28;20022;-43
2022/05/08 03:58:04;;;;;;;3.92;2.75;;;23.70;46.50;;;;;;4986627;28;20030;-43
2022/05/08 04:00:30;;;;;;;3.95;2.70;;;23.70;46.50;;;;;;4985775;28;20026;-43
2022/05/08 04:02:56;;;;;;;3.80;2.78;;;23.70;46.50;;;;;;4986615;28;20510;-43
2022/05/08 04:05:22;;;;;;;3.80;2.83;;;23.70;46.50;;;;;;4986160;28;20454;-42
2022/05/08 04:07:48;;;;;;;3.90;2.72;;;23.70;46.50;;;;;;4985781;28;20030;-43
2022/05/08 04:10:14;;;;;;;3.70;2.88;;;23.70;46.50;;;;;;4986327;28;20029;-43
2022/05/08 04:12:44;;;;;;;3.58;2.50;;;23.70;46.50;;;;;;4986076;28;20022;-43
2022/05/08 04:17:55;;;;;;;4.25;2.90;;;23.70;46.50;;;;;;4985854;28;20149;-43
2022/05/08 04:20:20;;;;;;;3.80;2.78;;;23.70;46.50;;;;;;4986047;28;20014;-43
2022/05/08 04:25:30;;;;;;;3.78;2.58;;;23.70;46.50;;;;;;4985494;28;20449;-43
2022/05/08 04:27:56;;;;;;;4.18;2.78;;;23.70;46.50;;;;;;4985654;28;20109;-43
2022/05/08 04:30:22;;;;;;;4.20;3.13;;;23.70;46.50;;;;;;4984914;28;20061;-43
2022/05/08 04:32:48;;;;;;;3.70;2.47;;;23.70;46.50;;;;;;4986111;28;20564;-43
2022/05/08 04:35:13;;;;;;;3.70;2.80;;;23.70;47.20;;;;;;4986407;28;20101;-43
2022/05/08 04:37:39;;;;;;;4.53;3.40;;;23.70;46.50;;;;;;4986456;28;20041;-43
2022/05/08 04:40:06;;;;;;;3.92;2.88;;;23.70;46.50;;;;;;4986150;28;20034;-43
2022/05/08 04:42:32;;;;;;;4.88;3.30;;;23.70;46.50;;;;;;4986490;28;20049;-43
2022/05/08 04:44:59;;;;;;;3.78;2.80;;;23.70;46.60;;;;;;4986620;28;20038;-43
2022/05/08 04:47:26;;;;;;;3.47;2.63;;;23.70;46.50;;;;;;4986448;28;20030;-43
2022/05/08 04:49:51;;;;;;;3.83;2.60;;;23.70;46.60;;;;;;4986203;28;20024;-43
2022/05/08 04:52:17;;;;;;;3.67;2.47;;;23.70;46.60;;;;;;4986090;28;20362;-43
2022/05/08 04:54:43;;;;;;;3.72;2.70;;;23.70;46.60;;;;;;4986128;28;20026;-43
2022/05/08 04:57:09;;;;;;;3.67;2.78;;;23.70;46.60;;;;;;4985826;28;20023;-43
2022/05/08 04:59:34;;;;;;;4.90;2.90;;;23.70;47.30;;;;;;4985963;28;20387;-43
2022/05/08 05:02:02;;;;;;;3.95;2.63;;;23.70;46.60;;;;;;4984489;28;20109;-43
2022/05/08 05:04:28;;;;;;;3.92;2.78;;;23.70;46.60;;;;;;4984857;28;20045;-43
2022/05/08 05:06:54;;;;;;;3.80;2.78;;;23.70;46.60;;;;;;4985954;28;20038;-43
2022/05/08 05:09:20;;;;;;;4.10;2.90;;;23.70;46.60;;;;;;4986277;28;20026;-44
2022/05/08 05:11:46;;;;;;;3.78;2.53;;;23.70;46.60;;;;;;4985554;28;20026;-43
2022/05/08 05:14:12;;;;;;;4.00;2.85;;;23.70;46.60;;;;;;4985788;28;20041;-43
2022/05/08 05:16:38;;;;;;;3.45;2.55;;;23.70;46.60;;;;;;4985965;28;20038;-43
2022/05/08 05:19:07;;;;;;;3.35;2.50;;;23.70;46.60;;;;;;4985798;28;20061;-44
2022/05/08 05:21:32;;;;;;;3.70;2.38;;;23.70;46.60;;;;;;4985144;28;20518;-43
2022/05/08 05:23:58;;;;;;;3.53;2.60;;;23.70;46.60;;;;;;4985824;28;20042;-43
2022/05/08 05:26:24;;;;;;;3.42;2.63;;;23.70;46.60;;;;;;4984037;28;20173;-43
2022/05/08 05:28:51;;;;;;;3.90;2.65;;;23.70;46.60;;;;;;4984879;28;20112;-43
2022/05/08 05:31:17;;;;;;;3.53;2.70;;;23.70;46.60;;;;;;4984921;28;20038;-43
2022/05/08 05:33:44;;;;;;;3.72;2.60;;;23.70;46.70;;;;;;4985651;28;20609;-43
2022/05/08 05:36:09;;;;;;;3.40;2.50;;;23.70;46.70;;;;;;4985573;28;20462;-43
2022/05/08 05:38:35;;;;;;;3.50;2.53;;;23.70;46.70;;;;;;4985524;28;20723;-43
2022/05/08 05:41:01;;;;;;;3.47;2.40;;;23.70;46.70;;;;;;4985043;28;20494;-43
2022/05/08 05:43:26;;;;;;;3.75;2.70;;;23.70;46.70;;;;;;4984054;28;20817;-43
2022/05/08 05:48:37;;;;;;;3.60;2.50;;;23.70;46.70;;;;;;4985295;28;20037;-43
2022/05/08 05:51:05;;;;;;;3.90;2.70;;;23.70;46.70;;;;;;4984130;28;20034;-43
2022/05/08 05:53:33;;;;;;;3.42;2.45;;;23.70;46.70;;;;;;4984688;28;20103;-43
2022/05/08 05:55:59;;;;;;;3.38;2.40;;;23.70;46.70;;;;;;4984651;28;20076;-43
2022/05/08 05:58:25;;;;;;;4.05;2.78;;;23.70;46.70;;;;;;4984207;28;20402;-43
2022/05/08 06:00:51;;;;;;;3.80;2.63;;;23.70;46.70;;;;;;4983556;28;20084;-43
2022/05/08 06:03:17;;;;;;;3.35;2.33;;;23.70;46.70;;;;;;4983629;28;20074;-43
2022/05/08 06:05:43;;;;;;;4.07;2.50;;;23.70;46.70;;;;;;4983163;28;20019;-43
2022/05/08 06:08:09;;;;;;;3.50;2.70;;;23.70;46.80;;;;;;4983634;28;20402;-43
2022/05/08 06:10:35;;;;;;;4.50;2.60;;;23.70;46.80;;;;;;4983121;28;20059;-43
2022/05/08 06:13:01;;;;;;;3.40;2.50;;;23.70;47.20;;;;;;4982671;28;20030;-43
2022/05/08 06:15:27;;;;;;;4.07;2.78;;;23.70;47.70;;;;;;4987177;28;20108;-43
2022/05/08 06:17:53;;;;;;;4.05;2.83;;;23.70;48.10;;;;;;4978235;28;20069;-43
2022/05/08 06:20:19;;;;;;;6.72;3.10;;;23.70;48.30;;;;;;4986093;28;20030;-43
2022/05/08 06:22:45;;;;;;;3.75;2.75;;;23.70;48.50;;;;;;4987572;28;20022;-44
2022/05/08 06:25:12;;;;;;;4.45;3.45;;;23.70;48.60;;;;;;4987441;28;20573;-44
2022/05/08 06:27:38;;;;;;;5.43;3.60;;;23.70;48.90;;;;;;4987782;28;20105;-44
2022/05/08 06:30:07;;;;;;;5.15;2.97;;;23.70;48.90;;;;;;4987720;28;20045;-42
2022/05/08 06:32:35;;;;;;;4.63;3.17;;;23.80;48.50;;;;;;4987541;28;20022;-43
2022/05/08 06:35:00;;;;;;;14.07;3.60;;;23.70;48.50;;;;;;4982183;28;20486;-42
2022/05/08 06:37:26;;;;;;;4.28;3.35;;;23.80;48.40;;;;;;4984296;28;20043;-42
2022/05/08 06:39:52;;;;;;;3.95;2.95;;;23.90;48.40;;;;;;4986963;28;20033;-42
2022/05/08 06:42:18;;;;;;;3.75;2.85;;;23.90;48.20;;;;;;4987101;28;20030;-42
2022/05/08 06:44:44;;;;;;;4.05;3.33;;;23.90;48.00;;;;;;4986395;28;20031;-42
2022/05/08 06:47:10;;;;;;;4.22;3.28;;;24.00;47.80;;;;;;4987682;28;20092;-42
2022/05/08 06:49:35;;;;;;;5.32;3.38;;;24.00;47.60;;;;;;4987640;28;20286;-42
2022/05/08 06:52:02;;;;;;;3.63;2.63;;;24.00;47.50;;;;;;4987044;28;20022;-43
2022/05/08 06:54:28;;;;;;;4.43;3.03;;;24.10;47.40;;;;;;4987296;28;20062;-43
2022/05/08 06:56:55;;;;;;;4.25;2.90;;;24.10;47.70;;;;;;4985802;28;20391;-44
2022/05/08 07:02:07;;;;;;;4.28;3.15;;;24.10;48.40;;;;;;4986275;28;20081;-44
2022/05/08 07:04:33;;;;;;;3.58;2.47;;;24.20;47.60;;;;;;4986460;28;20045;-43
2022/05/08 07:07:00;;;;;;;4.93;2.58;;;24.20;47.50;;;;;;4986380;28;20058;-44
2022/05/08 07:09:26;;;;;;;4.38;3.05;;;24.20;47.50;;;;;;4985603;28;20052;-44
2022/05/08 07:11:51;;;;;;;4.15;2.88;;;24.20;47.40;;;;;;4985583;28;20045;-45
2022/05/08 07:14:18;;;;;;;3.67;2.47;;;24.10;47.50;;;;;;4985644;28;20030;-45
2022/05/08 07:16:44;;;;;;;4.20;2.80;;;24.20;47.40;;;;;;4986318;28;20023;-43
2022/05/08 07:19:10;;;;;;;4.45;3.28;;;24.10;47.50;;;;;;4984453;28;20069;-44
2022/05/08 07:21:37;;;;;;;3.67;2.85;;;24.10;47.50;;;;;;4985222;28;20572;-44
2022/05/08 07:24:03;;;;;;;5.45;3.58;;;24.10;47.50;;;;;;4985081;28;20601;-45
2022/05/08 07:26:29;;;;;;;4.18;3.22;;;24.10;47.90;;;;;;4984329;28;20014;-45
2022/05/08 07:28:55;;;;;;;5.10;3.40;;;24.20;48.00;;;;;;4984442;28;20046;-44
2022/05/08 07:31:21;;;;;;;4.63;3.35;;;24.10;48.10;;;;;;4986456;28;20041;-43
2022/05/08 07:33:47;;;;;;;4.88;3.30;;;24.20;48.20;;;;;;4986093;28;20711;-45
2022/05/08 07:36:13;;;;;;;4.63;3.67;;;24.20;48.40;;;;;;4986779;28;20049;-45
2022/05/08 07:38:44;;;;;;;4.85;3.75;;;24.20;48.30;;;;;;4986418;28;20038;-44
2022/05/08 07:41:12;;;;;;;4.50;3.65;;;24.20;48.20;;;;;;4986450;28;20027;-45
2022/05/08 07:43:39;;;;;;;3.90;3.13;;;24.20;48.10;;;;;;4983980;28;20030;-45
2022/05/08 07:46:05;;;;;;;5.30;3.65;;;24.20;48.20;;;;;;4980638;28;20086;-43
2022/05/08 07:48:32;;;;;;;5.30;3.92;;;24.20;48.10;;;;;;4978240;28;20061;-44
2022/05/08 07:51:00;;;;;;;5.20;4.00;;;24.20;48.10;;;;;;4981939;28;20034;-44
2022/05/08 07:53:27;;;;;;;4.80;3.58;;;24.20;48.00;;;;;;4984859;28;20027;-43
2022/05/08 07:55:53;;;;;;;4.28;3.47;;;24.20;47.90;;;;;;4986335;28;20026;-44
2022/05/08 07:58:20;;;;;;;4.93;3.20;;;24.20;47.90;;;;;;4984365;28;20130;-44
2022/05/08 08:00:46;;;;;;;4.38;3.10;;;24.20;48.00;;;;;;4985659;28;20080;-43
2022/05/08 08:03:11;;;;;;;4.50;3.28;;;24.20;47.90;;;;;;4984633;28;20469;-44
2022/05/08 08:05:38;;;;;;;4.65;3.40;;;24.20;47.80;;;;;;4977148;28;20065;-45
2022/05/08 08:08:04;;;;;;;5.00;3.40;;;24.20;48.20;;;;;;4973956;28;20683;-45
2022/05/08 08:10:30;;;;;;;4.68;3.45;;;24.30;48.60;;;;;;4980333;28;20564;-44
2022/05/08 08:12:57;;;;;;;4.75;3.80;;;24.20;48.50;;;;;;4985664;28;20034;-45
2022/05/08 08:15:23;;;;;;;7.22;3.38;;;24.20;48.60;;;;;;4985911;28;20046;-45
2022/05/08 08:17:48;;;;;;;4.10;3.10;;;24.30;48.70;;;;;;4986691;28;20098;-44
2022/05/08 08:20:14;;;;;;;5.25;3.83;;;24.30;48.80;;;;;;4985896;28;20035;-44
2022/05/08 08:22:40;;;;;;;4.68;3.50;;;24.30;48.90;;;;;;4986504;28;20034;-45
2022/05/08 08:25:06;;;;;;;5.72;3.72;;;24.30;48.90;;;;;;4986822;28;20127;-44
2022/05/08 08:27:32;;;;;;;5.10;3.97;;;24.30;48.90;;;;;;4986493;28;20048;-44
2022/05/08 08:29:59;;;;;;;4.63;3.30;;;24.30;49.00;;;;;;4986746;28;20386;-45
2022/05/08 08:32:26;;;;;;;4.85;3.70;;;24.30;48.60;;;;;;4985653;28;20034;-45
2022/05/08 08:34:53;;;;;;;5.03;4.00;;;24.30;48.60;;;;;;4985556;28;20038;-45
2022/05/08 08:37:19;;;;;;;5.28;3.50;;;24.30;48.50;;;;;;4985012;28;20037;-45
2022/05/08 08:39:45;;;;;;;4.40;3.70;;;24.30;48.50;;;;;;4986375;28;20394;-46
2022/05/08 08:42:31;;;;;;;5.45;3.60;;;24.30;48.50;;;;;;4985641;28;20112;-45
2022/05/08 08:47:54;;;;;;;3.92;3.15;;;24.30;48.50;;;;;;5004255;28;20033;-45
2022/05/08 08:50:24;;;;;;;5.32;3.05;;;24.30;48.60;;;;;;5005252;28;20036;-44
2022/05/08 08:52:50;;;;;;;4.13;3.08;;;24.30;48.60;;;;;;4991365;28;20093;-44
2022/05/08 08:55:17;;;;;;;3.80;2.92;;;24.30;48.60;;;;;;4985407;28;20022;-44
2022/05/08 08:57:45;;;;;;;4.65;3.40;;;24.30;48.80;;;;;;4985106;28;20030;-44
2022/05/08 09:00:13;;;;;;;3.90;2.97;;;24.30;48.50;;;;;;4985359;28;20108;-43
2022/05/08 09:02:40;;;;;;;3.92;3.17;;;24.30;48.80;;;;;;4985368;28;20120;-43
2022/05/08 09:05:08;;;;;;;4.50;3.08;;;24.30;48.60;;;;;;4984445;28;20038;-43
2022/05/08 09:07:34;;;;;;;4.20;3.10;;;24.30;48.80;;;;;;4983698;28;20038;-44
2022/05/08 09:10:19;;;;;;;4.13;3.08;;;24.40;49.00;;;;;;4984126;28;20441;-44
2022/05/08 09:13:07;;;;;;;4.35;3.30;;;24.30;49.20;;;;;;4983999;28;20088;-44
2022/05/08 09:15:37;;;;;;;4.93;3.08;;;24.40;49.30;;;;;;4984589;28;20037;-43
2022/05/08 09:18:10;;;;;;;4.47;3.33;;;24.40;49.60;;;;;;4984897;28;20090;-45
2022/05/08 09:20:41;;;;;;;4.72;3.55;;;24.40;49.70;;;;;;4984740;28;20840;-45
2022/05/08 09:23:19;;;;;;;4.38;3.28;;;24.40;49.40;;;;;;4985140;28;20278;-45
2022/05/08 09:25:56;;;;;;;4.43;3.17;;;24.40;49.30;;;;;;4985136;28;20034;-44
2022/05/08 09:28:34;;;;;;;5.60;3.13;;;24.40;49.20;;;;;;4984788;28;20027;-45
2022/05/08 09:31:11;;;;;;;4.20;3.00;;;24.40;49.10;;;;;;4983916;28;20038;-45
2022/05/08 09:33:39;;;;;;;4.63;3.30;;;24.40;49.00;;;;;;4985038;28;20084;-50
2022/05/08 09:36:07;;;;;;;4.50;3.03;;;24.50;49.10;;;;;;4985549;28;20031;-45
2022/05/08 09:38:46;;;;;;;4.20;3.13;;;24.40;49.10;;;;;;4984970;28;20030;-45
2022/05/08 09:41:14;;;;;;;5.03;3.35;;;24.40;49.00;;;;;;4983525;28;20053;-46
2022/05/08 09:43:40;;;;;;;5.10;3.50;;;24.50;49.10;;;;;;4984507;28;20031;-45
2022/05/08 09:46:08;;;;;;;3.63;2.88;;;24.40;49.00;;;;;;4984336;28;20412;-45
2022/05/08 09:48:34;;;;;;;3.95;2.92;;;24.50;49.00;;;;;;4984401;28;20026;-45
2022/05/08 09:51:13;;;;;;;4.15;2.90;;;24.50;49.00;;;;;;4983941;28;20510;-43
2022/05/08 09:53:40;;;;;;;4.07;3.05;;;24.50;49.00;;;;;;4984131;28;20034;-44
2022/05/08 09:56:08;;;;;;;3.75;2.83;;;24.50;49.00;;;;;;4983857;28;20101;-45
2022/05/08 09:58:34;;;;;;;4.03;2.63;;;24.50;48.90;;;;;;4982652;28;20533;-45
2022/05/08 10:01:00;;;;;;;4.32;2.97;;;24.50;48.90;;;;;;4982926;28;20084;-45
2022/05/08 10:03:28;;;;;;;4.32;2.88;;;24.50;48.80;;;;;;4983542;28;20046;-45
2022/05/08 10:05:55;;;;;;;3.80;2.67;;;24.50;48.80;;;;;;4984834;28;20030;-43
2022/05/08 10:08:25;;;;;;;4.20;2.90;;;24.50;48.80;;;;;;4984833;28;20097;-45
2022/05/08 10:14:07;;;;;;;4.30;2.97;;;24.50;48.50;;;;;;4984400;28;20089;-45
2022/05/08 10:16:49;;;;;;;4.55;2.75;;;24.50;48.40;;;;;;4984882;28;20026;-45
2022/05/08 10:19:21;;;;;;;4.10;3.10;;;24.50;48.30;;;;;;4984815;28;20570;-43
2022/05/08 10:22:13;;;;;;;3.85;2.55;;;24.50;48.20;;;;;;4982299;28;20045;-45
2022/05/08 10:24:38;;;;;;;3.63;2.50;;;24.50;48.30;;;;;;4983281;28;20043;-45
2022/05/08 10:27:15;;;;;;;4.13;2.70;;;24.50;48.20;;;;;;4983655;28;20758;-45
2022/05/08 10:30:04;;;;;;;3.58;2.40;;;24.50;48.20;;;;;;4983750;28;20163;-45
2022/05/08 10:32:32;;;;;;;4.00;2.70;;;24.50;48.30;;;;;;4981854;28;20088;-44
2022/05/08 10:35:25;;;;;;;4.60;3.08;;;24.50;48.30;;;;;;4984276;28;20057;-45
2022/05/08 10:38:12;;;;;;;5.22;2.65;;;24.50;48.20;;;;;;4984083;28;20026;-45
2022/05/08 10:40:39;;;;;;;4.03;2.53;;;24.50;48.20;;;;;;4983699;28;20038;-45
2022/05/08 10:43:28;;;;;;;3.63;2.50;;;24.50;48.20;;;;;;4983926;28;20035;-44
2022/05/08 10:45:54;;;;;;;4.30;2.75;;;24.50;48.30;;;;;;4984053;28;20038;-46
2022/05/08 10:48:21;;;;;;;3.90;2.83;;;24.50;48.30;;;;;;4983614;28;20407;-45
2022/05/08 10:50:49;;;;;;;3.78;2.65;;;24.50;48.30;;;;;;4983923;28;20038;-45
2022/05/08 10:53:23;;;;;;;3.92;2.35;;;24.50;48.30;;;;;;4983977;28;20030;-45
2022/05/08 10:55:49;;;;;;;3.88;2.63;;;24.50;48.60;;;;;;4982972;28;20026;-45
2022/05/08 10:58:15;;;;;;;5.10;2.50;;;24.40;48.60;;;;;;4983431;28;20018;-45
2022/05/08 11:00:41;;;;;;;3.95;2.75;;;24.50;49.00;;;;;;4985869;28;20025;-46
2022/05/08 11:03:06;;;;;;;4.93;3.22;;;24.50;49.10;;;;;;4986451;28;20029;-46
2022/05/08 11:05:36;;;;;;;6.05;2.95;;;24.50;49.50;;;;;;4986494;28;20026;-46
2022/05/08 11:08:10;;;;;;;4.90;3.10;;;24.50;49.50;;;;;;4986996;28;20130;-44
2022/05/08 11:10:43;;;;;;;3.97;2.83;;;24.50;49.20;;;;;;4986567;28;20109;-44
2022/05/08 11:13:11;;;;;;;4.75;3.60;;;24.50;49.50;;;;;;4986959;28;20089;-44
2022/05/08 11:15:45;;;;;;;4.82;3.00;;;24.50;51.00;;;;;;4986689;28;20134;-44
2022/05/08 11:18:20;;;;;;;5.50;3.03;;;24.50;51.00;;;;;;4986458;28;20022;-44
2022/05/08 11:20:53;;;;;;;4.45;3.08;;;24.50;51.00;;;;;;4987136;28;20314;-45
2022/05/08 11:23:24;;;;;;;4.25;2.60;;;24.50;51.30;;;;;;4985880;28;20030;-45
2022/05/08 11:25:53;;;;;;;4.60;3.17;;;24.50;51.30;;;;;;4980225;28;20019;-45
2022/05/08 11:28:21;;;;;;;5.50;4.22;;;24.50;51.20;;;;;;4978909;28;20030;-44
2022/05/08 11:30:48;;;;;;;7.35;5.70;;;24.50;51.30;;;;;;4976623;28;20106;-45
2022/05/08 11:36:05;;;;;;;8.13;5.47;;;24.50;51.40;;;;;;4977869;28;20086;-44
2022/05/08 11:38:32;;;;;;;7.18;5.85;;;24.60;51.80;;;;;;4977497;28;20040;-45
2022/05/08 11:40:59;;;;;;;9.05;6.15;;;24.60;51.90;;;;;;4977844;28;20062;-45
2022/05/08 11:43:39;;;;;;;7.57;5.07;;;24.60;52.50;;;;;;4977481;28;20077;-45
2022/05/08 11:46:07;;;;;;;9.18;6.38;;;24.60;52.40;;;;;;4979267;28;20474;-45
2022/05/08 11:48:40;;;;;;;11.95;7.13;;;24.60;52.80;;;;;;4974924;28;20026;-45
2022/05/08 11:51:20;;;;;;;14.98;8.80;;;24.70;52.80;;;;;;4976567;28;20026;-45
2022/05/08 11:53:50;;;;;;;16.42;11.70;;;24.70;53.60;;;;;;4976223;28;20027;-45
2022/05/08 11:56:21;;;;;;;19.98;16.45;;;24.70;53.20;;;;;;4978193;28;20458;-45
2022/05/08 11:58:49;;;;;;;19.63;16.65;;;24.70;56.20;;;;;;4979314;28;20069;-44
2022/05/08 12:01:47;;;;;;;16.33;13.75;;;24.80;55.60;;;;;;4986821;28;20030;-45
2022/05/08 12:04:24;;;;;;;15.80;10.88;;;24.90;54.40;;;;;;4987055;28;20037;-45
2022/05/08 12:07:03;;;;;;;10.60;8.15;;;25.00;53.30;;;;;;4986739;28;20034;-44
2022/05/08 12:09:34;;;;;;;11.23;7.68;;;25.00;52.50;;;;;;4986542;28;20090;-45
2022/05/08 12:12:28;;;;;;;9.40;7.28;;;25.10;52.10;;;;;;4984932;28;20110;-45
2022/05/08 12:15:13;;;;;;;11.07;7.50;;;25.10;51.70;;;;;;4974018;28;20026;-46
2022/05/08 12:17:39;;;;;;;11.50;7.40;;;25.10;50.70;;;;;;4982495;28;20598;-46
2022/05/08 12:20:12;;;;;;;10.48;8.30;;;25.00;50.30;;;;;;4973695;28;20031;-45
2022/05/08 12:22:39;;;;;;;9.52;8.00;;;25.00;50.10;;;;;;4966922;28;20121;-45
2022/05/08 12:25:06;;;;;;;9.32;8.13;;;25.00;50.20;;;;;;4977740;28;20038;-45
2022/05/08 12:27:32;;;;;;;10.07;9.05;;;25.00;50.10;;;;;;4986388;28;20049;-45
2022/05/08 12:29:58;;;;;;;7.85;7.05;;;25.00;49.90;;;;;;4986335;28;20270;-45
2022/05/08 12:32:25;;;;;;;9.02;8.00;;;25.00;49.90;;;;;;4986292;28;20530;-46
2022/05/08 12:34:53;;;;;;;9.25;7.90;;;25.00;49.70;;;;;;4986241;28;20085;-45
2022/05/08 12:37:21;;;;;;;8.20;7.30;;;25.00;49.60;;;;;;4986607;28;20030;-45
2022/05/08 12:39:46;;;;;;;8.77;7.88;;;25.00;49.50;;;;;;4986444;28;20703;-45
2022/05/08 12:42:13;;;;;;;8.80;7.63;;;25.00;49.10;;;;;;4985966;28;20092;-46
2022/05/08 12:44:39;;;;;;;9.57;7.55;;;25.00;49.20;;;;;;4966769;28;20039;-46
2022/05/08 12:47:09;;;;;;;7.38;6.53;;;25.00;48.90;;;;;;4970819;28;20046;-46
2022/05/08 12:49:36;;;;;;;9.10;8.15;;;25.00;48.80;;;;;;4985102;28;20034;-46
2022/05/08 12:52:04;;;;;;;8.27;7.40;;;25.00;48.50;;;;;;4985041;28;20372;-46
2022/05/08 12:54:31;;;;;;;8.35;7.55;;;25.00;48.40;;;;;;4985205;28;20683;-46
2022/05/08 12:56:58;;;;;;;9.25;8.13;;;25.00;48.20;;;;;;4984479;28;20379;-45
2022/05/08 13:02:11;;;;;;;9.20;7.57;;;25.00;47.90;;;;;;4984374;28;20795;-45
2022/05/08 13:04:37;;;;;;;8.55;7.65;;;25.00;47.70;;;;;;4985173;28;20080;-46
2022/05/08 13:07:03;;;;;;;7.45;6.60;;;25.00;47.80;;;;;;4985159;28;20035;-46
2022/05/08 13:09:29;;;;;;;7.45;6.68;;;25.00;47.80;;;;;;4985244;28;20027;-44
2022/05/08 13:11:55;;;;;;;7.93;7.13;;;24.90;47.20;;;;;;4984606;28;20018;-45
2022/05/08 13:14:21;;;;;;;7.28;6.45;;;24.90;47.20;;;;;;4984423;28;20088;-46
2022/05/08 13:16:47;;;;;;;7.55;6.47;;;24.90;47.00;;;;;;4984876;28;20114;-45
2022/05/08 13:19:12;;;;;;;8.60;6.40;;;24.90;47.00;;;;;;4984059;28;20391;-45